createdAt,value
2023-05-22T00:01:02.232Z,18.67
2023-05-22T00:03:29.419Z,18.65
2023-05-22T00:05:58.830Z,18.70
2023-05-22T00:08:29.312Z,18.65
2023-05-22T00:10:56.223Z,18.69
2023-05-22T00:13:22.591Z,18.64
2023-05-22T00:15:49.548Z,18.61
2023-05-22T00:18:16.025Z,18.50
2023-05-22T00:20:42.466Z,18.56
2023-05-22T00:23:13.732Z,18.53
2023-05-22T00:25:42.089Z,18.49
2023-05-22T00:28:08.512Z,18.47
2023-05-22T00:30:35.043Z,18.45
2023-05-22T00:33:02.290Z,18.39
2023-05-22T00:35:28.763Z,18.43
2023-05-22T00:37:55.198Z,18.32
2023-05-22T00:40:22.396Z,18.34
2023-05-22T00:42:48.909Z,18.31
2023-05-22T00:45:15.726Z,18.22
2023-05-22T00:47:42.613Z,18.27
2023-05-22T00:50:11.696Z,18.20
2023-05-22T00:52:42.353Z,18.22
2023-05-22T00:55:09.658Z,18.18
2023-05-22T00:57:38.485Z,18.20
2023-05-22T01:00:06.458Z,18.11
2023-05-22T01:02:33.289Z,18.02
2023-05-22T01:04:59.795Z,18.02
2023-05-22T01:07:26.091Z,17.97
2023-05-22T01:09:52.671Z,17.90
2023-05-22T01:12:38.248Z,17.92
2023-05-22T01:15:26.633Z,17.89
2023-05-22T01:18:19.517Z,17.87
2023-05-22T01:21:04.265Z,17.82
2023-05-22T01:23:39.689Z,17.78
2023-05-22T01:26:35.561Z,17.71
2023-05-22T01:29:28.697Z,17.67
2023-05-22T01:31:59.142Z,17.65
2023-05-22T01:34:26.531Z,17.62
2023-05-22T01:36:53.384Z,17.57
2023-05-22T01:39:22.652Z,17.54
2023-05-22T01:41:49.406Z,17.62
2023-05-22T01:44:15.858Z,17.59
2023-05-22T01:46:42.156Z,17.61
2023-05-22T01:49:09.096Z,17.58
2023-05-22T01:51:58.892Z,17.53
2023-05-22T01:54:25.184Z,17.50
2023-05-22T01:57:10.729Z,17.54
2023-05-22T01:59:48.529Z,17.51
2023-05-22T02:02:19.689Z,17.49
2023-05-22T02:04:51.284Z,17.49
2023-05-22T02:07:20.962Z,17.47
2023-05-22T02:09:48.895Z,17.53
2023-05-22T02:12:16.217Z,17.51
2023-05-22T02:14:43.696Z,17.43
2023-05-22T02:17:10.116Z,17.43
2023-05-22T02:19:36.469Z,17.45
2023-05-22T02:22:03.540Z,17.29
2023-05-22T02:24:30.787Z,17.39
2023-05-22T02:26:58.033Z,17.31
2023-05-22T02:29:24.370Z,17.27
2023-05-22T02:31:53.160Z,17.32
2023-05-22T02:34:19.524Z,17.29
2023-05-22T02:36:45.945Z,17.32
2023-05-22T02:39:12.354Z,17.31
2023-05-22T02:41:38.680Z,17.32
2023-05-22T02:44:05.036Z,17.23
2023-05-22T02:46:31.365Z,17.34
2023-05-22T02:48:57.819Z,17.29
2023-05-22T02:51:24.122Z,17.37
2023-05-22T02:53:50.521Z,17.32
2023-05-22T02:56:16.882Z,17.34
2023-05-22T02:58:43.230Z,17.25
2023-05-22T03:01:10.435Z,17.27
2023-05-22T03:03:36.970Z,17.24
2023-05-22T03:06:04.242Z,17.23
2023-05-22T03:08:31.601Z,17.19
2023-05-22T03:10:59.683Z,17.12
2023-05-22T03:13:26.340Z,17.11
2023-05-22T03:15:52.836Z,17.01
2023-05-22T03:18:19.265Z,16.99
2023-05-22T03:20:45.743Z,16.93
2023-05-22T03:23:13.073Z,16.90
2023-05-22T03:25:39.735Z,16.81
2023-05-22T03:28:06.369Z,16.78
2023-05-22T03:30:33.346Z,16.80
2023-05-22T03:32:59.816Z,16.80
2023-05-22T03:35:26.435Z,16.80
2023-05-22T03:37:52.795Z,16.78
2023-05-22T03:40:19.201Z,16.70
2023-05-22T03:42:45.584Z,16.71
2023-05-22T03:45:12.554Z,16.83
2023-05-22T03:47:38.995Z,16.85
2023-05-22T03:50:05.846Z,16.85
2023-05-22T03:52:32.248Z,16.89
2023-05-22T03:54:58.612Z,16.97
2023-05-22T03:57:25.005Z,16.97
2023-05-22T03:59:51.402Z,16.87
2023-05-22T04:02:17.827Z,16.89
2023-05-22T04:04:46.295Z,16.88
2023-05-22T04:07:13.439Z,16.84
2023-05-22T04:09:40.748Z,16.87
2023-05-22T04:12:07.891Z,16.87
2023-05-22T04:14:34.485Z,16.86
2023-05-22T04:17:00.932Z,16.69
2023-05-22T04:19:28.313Z,16.80
2023-05-22T04:21:54.853Z,16.73
2023-05-22T04:24:23.036Z,16.77
2023-05-22T04:26:49.955Z,16.59
2023-05-22T04:29:16.442Z,16.62
2023-05-22T04:31:43.147Z,16.75
2023-05-22T04:34:13.064Z,16.76
2023-05-22T04:36:39.433Z,16.73
2023-05-22T04:39:05.777Z,16.79
2023-05-22T04:41:32.409Z,16.82
2023-05-22T04:44:00.360Z,16.87
2023-05-22T04:46:28.563Z,16.88
2023-05-22T04:48:54.978Z,16.90
2023-05-22T04:51:22.992Z,16.92
2023-05-22T04:53:49.823Z,17.02
2023-05-22T04:56:24.322Z,17.02
2023-05-22T04:58:59.984Z,17.03
2023-05-22T05:01:27.751Z,17.09
2023-05-22T05:03:54.381Z,17.21
2023-05-22T05:06:21.607Z,17.21
2023-05-22T05:08:49.692Z,17.22
2023-05-22T05:11:16.070Z,17.28
2023-05-22T05:13:43.059Z,17.37
2023-05-22T05:16:11.789Z,17.40
2023-05-22T05:18:40.543Z,17.41
2023-05-22T05:21:06.930Z,17.41
2023-05-22T05:23:36.206Z,17.47
2023-05-22T05:26:02.628Z,17.43
2023-05-22T05:28:30.978Z,17.38
2023-05-22T05:30:57.857Z,17.33
2023-05-22T05:33:24.317Z,17.46
2023-05-22T05:36:17.020Z,17.49
2023-05-22T05:38:43.413Z,17.40
2023-05-22T05:41:09.712Z,17.54
2023-05-22T05:43:36.108Z,17.55
2023-05-22T05:46:02.528Z,17.65
2023-05-22T05:48:28.983Z,17.60
2023-05-22T05:50:55.325Z,17.75
2023-05-22T05:53:21.820Z,17.71
2023-05-22T05:55:48.275Z,17.82
2023-05-22T05:58:14.744Z,17.92
2023-05-22T06:00:42.359Z,18.02
2023-05-22T06:03:08.940Z,18.12
2023-05-22T06:05:35.449Z,18.20
2023-05-22T06:08:01.884Z,18.27
2023-05-22T06:10:28.319Z,18.34
2023-05-22T06:12:54.666Z,18.43
2023-05-22T06:15:21.143Z,18.50
2023-05-22T06:17:47.639Z,18.59
2023-05-22T06:20:15.268Z,18.63
2023-05-22T06:22:41.618Z,18.75
2023-05-22T06:25:08.160Z,18.90
2023-05-22T06:27:34.541Z,19.00
2023-05-22T06:30:01.900Z,19.06
2023-05-22T06:32:28.418Z,19.16
2023-05-22T06:34:54.962Z,19.27
2023-05-22T06:37:21.400Z,19.41
2023-05-22T06:39:48.189Z,19.50
2023-05-22T06:42:14.558Z,19.54
2023-05-22T06:44:40.900Z,19.72
2023-05-22T06:47:07.359Z,19.88
2023-05-22T06:49:33.762Z,19.99
2023-05-22T06:52:00.317Z,20.05
2023-05-22T06:54:28.675Z,20.12
2023-05-22T06:56:55.839Z,20.18
2023-05-22T06:59:22.219Z,20.40
2023-05-22T07:01:48.715Z,20.42
2023-05-22T07:04:15.326Z,20.50
2023-05-22T07:06:42.467Z,20.60
2023-05-22T07:09:09.075Z,20.78
2023-05-22T07:11:38.117Z,20.88
2023-05-22T07:14:04.913Z,20.99
2023-05-22T07:16:31.500Z,21.15
2023-05-22T07:18:58.256Z,21.36
2023-05-22T07:21:24.737Z,21.56
2023-05-22T07:23:52.177Z,21.73
2023-05-22T07:26:19.041Z,21.82
2023-05-22T07:28:45.715Z,21.94
2023-05-22T07:31:12.328Z,22.10
2023-05-22T07:33:38.741Z,22.22
2023-05-22T07:36:05.909Z,22.42
2023-05-22T07:38:32.371Z,22.59
2023-05-22T07:40:58.772Z,22.68
2023-05-22T07:43:25.201Z,22.98
2023-05-22T07:45:51.692Z,23.36
2023-05-22T07:48:18.186Z,24.72
2023-05-22T07:50:45.472Z,26.43
2023-05-22T07:53:12.230Z,28.30
2023-05-22T07:55:39.470Z,29.64
2023-05-22T07:58:06.120Z,30.42
2023-05-22T08:00:32.626Z,30.79
2023-05-22T08:02:59.271Z,31.57
2023-05-22T08:05:25.819Z,31.62
2023-05-22T08:07:52.326Z,32.00
2023-05-22T08:10:19.512Z,31.94
2023-05-22T08:12:46.041Z,32.13
2023-05-22T08:15:12.535Z,32.64
2023-05-22T08:17:39.043Z,32.94
2023-05-22T08:20:07.047Z,32.79
2023-05-22T08:22:34.247Z,32.92
2023-05-22T08:25:00.799Z,33.46
2023-05-22T08:27:27.365Z,34.26
2023-05-22T08:29:53.741Z,34.85
2023-05-22T08:32:20.155Z,34.78
2023-05-22T08:34:46.721Z,34.44
2023-05-22T08:37:14.966Z,34.93
2023-05-22T08:39:41.392Z,34.93
2023-05-22T08:42:08.183Z,35.02
2023-05-22T08:44:34.709Z,35.05
2023-05-22T08:47:01.430Z,35.26
2023-05-22T08:49:27.980Z,35.75
2023-05-22T08:52:00.193Z,36.09
2023-05-22T08:54:28.614Z,34.97
2023-05-22T08:56:57.260Z,35.07
2023-05-22T08:59:24.888Z,35.21
2023-05-22T09:01:52.747Z,34.95
2023-05-22T09:04:23.586Z,35.44
2023-05-22T09:06:50.883Z,35.28
2023-05-22T09:09:17.891Z,34.58
2023-05-22T09:11:45.445Z,34.78
2023-05-22T09:14:12.376Z,34.49
2023-05-22T09:16:47.060Z,33.56
2023-05-22T09:19:14.882Z,33.60
2023-05-22T09:21:42.593Z,33.42
2023-05-22T09:24:10.861Z,34.03
2023-05-22T09:26:38.905Z,34.38
2023-05-22T09:29:07.360Z,34.14
2023-05-22T09:31:40.923Z,34.22
2023-05-22T09:34:08.473Z,33.49
2023-05-22T09:36:36.005Z,32.50
2023-05-22T09:39:04.317Z,32.60
2023-05-22T09:41:35.181Z,32.93
2023-05-22T09:44:02.250Z,32.86
2023-05-22T09:46:29.510Z,32.77
2023-05-22T09:48:56.060Z,32.40
2023-05-22T09:51:23.832Z,31.63
2023-05-22T09:53:51.252Z,30.68
2023-05-22T09:56:27.120Z,30.15
2023-05-22T09:59:02.278Z,29.85
2023-05-22T10:01:28.910Z,29.90
2023-05-22T10:03:57.151Z,29.74
2023-05-22T10:06:25.189Z,29.74
2023-05-22T10:08:58.107Z,29.85
2023-05-22T10:11:30.514Z,29.66
2023-05-22T10:13:58.846Z,29.52
2023-05-22T10:16:26.056Z,29.55
2023-05-22T10:18:53.897Z,29.49
2023-05-22T10:21:21.160Z,29.41
2023-05-22T10:23:49.387Z,29.32
2023-05-22T10:26:16.815Z,29.18
2023-05-22T10:28:50.805Z,29.13
2023-05-22T10:31:44.225Z,28.95
2023-05-22T10:34:17.937Z,28.46
2023-05-22T10:37:16.897Z,28.33
2023-05-22T10:40:08.947Z,28.58
2023-05-22T10:42:37.849Z,28.73
2023-05-22T10:45:07.498Z,28.78
2023-05-22T10:47:34.527Z,28.94
2023-05-22T10:50:11.132Z,29.07
2023-05-22T10:52:40.004Z,29.47
2023-05-22T10:55:11.163Z,29.65
2023-05-22T10:57:39.579Z,29.97
2023-05-22T11:00:24.578Z,30.06
2023-05-22T11:03:17.293Z,30.14
2023-05-22T11:05:52.909Z,30.71
2023-05-22T11:08:25.423Z,30.78
2023-05-22T11:11:01.411Z,30.46
2023-05-22T11:13:29.404Z,30.36
2023-05-22T11:15:57.823Z,30.67
2023-05-22T11:18:28.304Z,30.90
2023-05-22T11:20:55.804Z,30.98
2023-05-22T11:23:25.132Z,31.11
2023-05-22T11:25:51.661Z,31.36
2023-05-22T11:28:18.181Z,31.08
2023-05-22T11:30:45.184Z,30.78
2023-05-22T11:33:12.845Z,30.66
2023-05-22T11:35:39.803Z,30.66
2023-05-22T11:38:07.175Z,30.77
2023-05-22T11:40:34.011Z,30.89
2023-05-22T11:43:00.686Z,31.12
2023-05-22T11:45:27.325Z,31.17
2023-05-22T11:47:53.882Z,31.23
2023-05-22T11:50:33.382Z,31.52
2023-05-22T11:53:07.184Z,31.58
2023-05-22T11:55:33.731Z,31.82
2023-05-22T11:58:02.034Z,31.92
2023-05-22T12:00:29.337Z,31.86
2023-05-22T12:02:56.305Z,31.48
2023-05-22T12:05:22.772Z,31.03
2023-05-22T12:07:49.901Z,30.76
2023-05-22T12:10:16.525Z,30.62
2023-05-22T12:12:44.067Z,30.80
2023-05-22T12:15:10.831Z,30.97
2023-05-22T12:17:38.403Z,31.27
2023-05-22T12:20:06.257Z,31.40
2023-05-22T12:22:32.857Z,31.36
2023-05-22T12:24:59.370Z,31.28
2023-05-22T12:27:32.567Z,31.27
2023-05-22T12:30:08.167Z,31.23
2023-05-22T12:32:34.557Z,31.37
2023-05-22T12:35:01.015Z,31.63
2023-05-22T12:37:27.988Z,31.91
2023-05-22T12:39:59.726Z,31.89
2023-05-22T12:42:27.180Z,32.06
2023-05-22T12:44:54.770Z,32.03
2023-05-22T12:47:22.089Z,31.89
2023-05-22T12:49:48.540Z,31.87
2023-05-22T12:52:15.239Z,31.99
2023-05-22T12:54:41.653Z,32.19
2023-05-22T12:57:08.361Z,32.25
2023-05-22T12:59:36.412Z,32.29
2023-05-22T13:02:04.488Z,32.28
2023-05-22T13:04:31.497Z,32.36
2023-05-22T13:06:57.917Z,32.38
2023-05-22T13:09:24.365Z,32.15
2023-05-22T13:11:50.878Z,32.02
2023-05-22T13:14:17.581Z,31.94
2023-05-22T13:16:44.152Z,32.01
2023-05-22T13:19:10.892Z,31.95
2023-05-22T13:21:37.362Z,31.86
2023-05-22T13:24:04.423Z,31.64
2023-05-22T13:26:30.883Z,31.47
2023-05-22T13:28:57.346Z,31.55
2023-05-22T13:31:23.733Z,31.51
2023-05-22T13:33:50.230Z,31.40
2023-05-22T13:36:17.676Z,31.42
2023-05-22T13:38:44.209Z,31.46
2023-05-22T13:41:10.751Z,31.60
2023-05-22T13:43:37.630Z,31.74
2023-05-22T13:46:04.437Z,31.83
2023-05-22T13:48:31.181Z,31.93
2023-05-22T13:50:57.570Z,32.01
2023-05-22T13:53:23.949Z,31.94
2023-05-22T13:55:50.641Z,31.72
2023-05-22T13:58:17.152Z,31.74
2023-05-22T14:00:43.605Z,31.62
2023-05-22T14:03:11.635Z,31.33
2023-05-22T14:05:38.472Z,31.35
2023-05-22T14:08:05.033Z,31.20
2023-05-22T14:10:31.491Z,31.16
2023-05-22T14:12:57.914Z,31.04
2023-05-22T14:15:24.414Z,31.04
2023-05-22T14:17:50.817Z,31.13
2023-05-22T14:20:17.409Z,31.07
2023-05-22T14:22:56.382Z,31.05
2023-05-22T14:25:26.206Z,31.14
2023-05-22T14:27:52.741Z,31.09
2023-05-22T14:30:19.329Z,31.08
2023-05-22T14:32:46.660Z,31.21
2023-05-22T14:35:13.117Z,31.27
2023-05-22T14:37:39.689Z,31.30
2023-05-22T14:40:07.234Z,31.35
2023-05-22T14:42:33.789Z,31.22
2023-05-22T14:45:00.284Z,31.26
2023-05-22T14:47:26.656Z,31.28
2023-05-22T14:49:55.436Z,31.41
2023-05-22T14:52:24.157Z,31.26
2023-05-22T14:54:50.798Z,31.22
2023-05-22T14:57:17.205Z,31.22
2023-05-22T14:59:43.589Z,31.32
2023-05-22T15:02:09.981Z,31.41
2023-05-22T15:04:36.531Z,31.44
2023-05-22T15:07:04.465Z,31.44
2023-05-22T15:09:32.436Z,31.65
2023-05-22T15:11:58.855Z,31.91
2023-05-22T15:14:25.433Z,31.87
2023-05-22T15:16:51.867Z,31.95
2023-05-22T15:19:18.328Z,32.08
2023-05-22T15:21:44.807Z,32.21
2023-05-22T15:24:13.741Z,32.21
2023-05-22T15:26:40.418Z,32.28
2023-05-22T15:29:06.854Z,32.24
2023-05-22T15:31:33.337Z,32.23
2023-05-22T15:33:59.733Z,32.21
2023-05-22T15:36:27.354Z,32.19
2023-05-22T15:38:53.726Z,32.01
2023-05-22T15:41:21.492Z,31.57
2023-05-22T15:43:48.086Z,31.68
2023-05-22T15:46:16.788Z,31.68
2023-05-22T15:48:49.265Z,31.33
2023-05-22T15:51:15.734Z,31.35
2023-05-22T15:53:42.198Z,31.32
2023-05-22T15:56:09.945Z,31.22
2023-05-22T15:58:44.730Z,30.83
2023-05-22T16:01:15.127Z,30.34
2023-05-22T16:03:41.946Z,30.35
2023-05-22T16:06:08.529Z,29.95
2023-05-22T16:08:34.986Z,29.89
2023-05-22T16:11:01.661Z,29.93
2023-05-22T16:13:28.357Z,29.93
2023-05-22T16:15:54.840Z,29.95
2023-05-22T16:18:23.623Z,29.79
2023-05-22T16:20:50.429Z,29.59
2023-05-22T16:23:16.961Z,29.24
2023-05-22T16:25:43.313Z,28.81
2023-05-22T16:28:10.921Z,28.43
2023-05-22T16:30:37.331Z,28.10
2023-05-22T16:33:13.199Z,27.81
2023-05-22T16:35:49.773Z,27.54
2023-05-22T16:38:18.694Z,27.32
2023-05-22T16:40:45.145Z,27.26
2023-05-22T16:43:12.559Z,27.15
2023-05-22T16:45:39.159Z,26.99
2023-05-22T16:48:08.731Z,26.87
2023-05-22T16:50:35.138Z,26.79
2023-05-22T16:53:01.499Z,26.55
2023-05-22T16:55:27.892Z,26.32
2023-05-22T16:57:54.283Z,26.10
2023-05-22T17:00:20.970Z,25.91
2023-05-22T17:02:47.471Z,25.55
2023-05-22T17:05:13.892Z,25.13
2023-05-22T17:07:40.351Z,24.64
2023-05-22T17:10:07.206Z,24.21
2023-05-22T17:12:33.797Z,24.01
2023-05-22T17:15:00.305Z,23.83
2023-05-22T17:17:26.798Z,23.71
2023-05-22T17:19:53.321Z,23.55
2023-05-22T17:22:19.808Z,23.34
2023-05-22T17:24:46.271Z,23.09
2023-05-22T17:29:39.116Z,22.67
2023-05-22T17:32:06.363Z,22.50
2023-05-22T17:34:33.132Z,22.36
2023-05-22T17:36:59.532Z,22.21
2023-05-22T17:39:25.920Z,22.03
2023-05-22T17:41:52.505Z,21.85
2023-05-22T17:44:18.897Z,21.85
2023-05-22T17:46:45.427Z,21.81
2023-05-22T17:49:11.820Z,21.67
2023-05-22T17:51:38.181Z,21.51
2023-05-22T17:54:06.079Z,21.47
2023-05-22T17:56:32.441Z,21.49
2023-05-22T17:58:58.856Z,21.44
2023-05-22T18:01:27.079Z,21.35
2023-05-22T18:03:53.578Z,21.39
2023-05-22T18:06:23.226Z,21.39
2023-05-22T18:08:50.608Z,21.44
2023-05-22T18:11:17.231Z,21.43
2023-05-22T18:13:43.558Z,21.37
2023-05-22T18:16:10.116Z,21.35
2023-05-22T18:18:36.610Z,21.31
2023-05-22T18:21:03.022Z,21.26
2023-05-22T18:23:29.400Z,21.18
2023-05-22T18:25:57.195Z,21.23
2023-05-22T18:28:26.520Z,21.27
2023-05-22T18:30:53.758Z,21.28
2023-05-22T18:33:25.765Z,21.27
2023-05-22T18:35:52.620Z,21.36
2023-05-22T18:38:19.010Z,21.33
2023-05-22T18:40:47.061Z,21.36
2023-05-22T18:43:13.420Z,21.33
2023-05-22T18:45:39.797Z,21.34
2023-05-22T18:48:06.431Z,21.29
2023-05-22T18:50:33.137Z,21.25
2023-05-22T18:52:59.494Z,21.36
2023-05-22T18:55:27.159Z,21.37
2023-05-22T18:57:53.540Z,21.34
2023-05-22T19:00:19.894Z,21.39
2023-05-22T19:02:47.249Z,21.40
2023-05-22T19:05:13.758Z,21.45
2023-05-22T19:07:40.280Z,21.40
2023-05-22T19:10:08.255Z,21.33
2023-05-22T19:12:34.838Z,21.31
2023-05-22T19:15:01.237Z,21.31
2023-05-22T19:17:27.932Z,21.26
2023-05-22T19:19:54.524Z,21.23
2023-05-22T19:22:21.075Z,21.20
2023-05-22T19:24:47.681Z,21.21
2023-05-22T19:27:14.358Z,21.09
2023-05-22T19:29:40.794Z,20.99
2023-05-22T19:32:07.395Z,21.07
2023-05-22T19:34:33.892Z,21.05
2023-05-22T19:37:00.964Z,21.11
2023-05-22T19:39:27.354Z,21.08
2023-05-22T19:41:54.470Z,21.07
2023-05-22T19:44:21.054Z,21.04
2023-05-22T19:46:47.937Z,21.03
2023-05-22T19:49:14.311Z,21.03
2023-05-22T19:51:42.497Z,21.05
2023-05-22T19:54:09.228Z,21.02
2023-05-22T19:56:35.729Z,20.95
2023-05-22T19:59:02.129Z,20.93
2023-05-22T20:01:28.774Z,20.90
2023-05-22T20:03:55.989Z,20.86
2023-05-22T20:06:22.825Z,20.83
2023-05-22T20:08:52.139Z,20.81
2023-05-22T20:11:18.492Z,20.76
2023-05-22T20:13:45.040Z,20.77
2023-05-22T20:16:15.821Z,20.73
2023-05-22T20:18:42.237Z,20.79
2023-05-22T20:21:09.869Z,20.86
2023-05-22T20:23:36.568Z,20.85
2023-05-22T20:26:03.114Z,20.84
2023-05-22T20:28:29.462Z,20.76
2023-05-22T20:30:58.494Z,20.79
2023-05-22T20:33:25.128Z,20.71
2023-05-22T20:35:53.250Z,20.65
2023-05-22T20:38:19.924Z,20.68
2023-05-22T20:40:49.624Z,20.66
2023-05-22T20:43:18.374Z,20.58
2023-05-22T20:45:45.723Z,20.66
2023-05-22T20:48:13.371Z,20.65
2023-05-22T20:50:40.454Z,20.64
2023-05-22T20:53:07.053Z,20.69
2023-05-22T20:55:33.657Z,20.77
2023-05-22T20:58:00.094Z,20.75
2023-05-22T21:00:26.529Z,20.71
2023-05-22T21:02:52.953Z,20.62
2023-05-22T21:05:19.326Z,20.64
2023-05-22T21:07:45.689Z,20.63
2023-05-22T21:10:12.095Z,20.57
2023-05-22T21:12:38.445Z,20.53
2023-05-22T21:15:05.552Z,20.51
2023-05-22T21:17:32.020Z,20.46
2023-05-22T21:19:58.439Z,20.45
2023-05-22T21:22:24.797Z,20.39
2023-05-22T21:24:51.210Z,20.38
2023-05-22T21:27:17.701Z,20.36
2023-05-22T21:29:44.004Z,20.35
2023-05-22T21:32:10.483Z,20.26
2023-05-22T21:34:36.848Z,20.28
2023-05-22T21:37:03.246Z,20.28
2023-05-22T21:39:29.607Z,20.32
2023-05-22T21:41:55.968Z,20.40
2023-05-22T21:44:22.355Z,20.38
2023-05-22T21:46:48.714Z,20.36
2023-05-22T21:49:15.102Z,20.41
2023-05-22T21:51:41.434Z,20.40
2023-05-22T21:54:07.803Z,20.39
2023-05-22T21:56:34.168Z,20.43
2023-05-22T21:59:00.548Z,20.43
2023-05-22T22:01:27.088Z,20.43
2023-05-22T22:03:53.707Z,20.40
2023-05-22T22:06:20.141Z,20.37
2023-05-22T22:08:47.450Z,20.32
2023-05-22T22:11:13.883Z,20.29
2023-05-22T22:13:40.366Z,20.27
2023-05-22T22:16:06.887Z,20.31
2023-05-22T22:18:33.653Z,20.36
2023-05-22T22:21:02.040Z,20.46
2023-05-22T22:23:29.189Z,20.46
2023-05-22T22:25:56.148Z,20.44
2023-05-22T22:28:22.572Z,20.43
2023-05-22T22:30:48.940Z,20.41
2023-05-22T22:33:15.303Z,20.32
2023-05-22T22:35:42.300Z,20.26
2023-05-22T22:38:08.846Z,20.23
2023-05-22T22:40:35.465Z,20.23
2023-05-22T22:43:01.852Z,20.26
2023-05-22T22:45:28.214Z,20.19
2023-05-22T22:47:56.439Z,20.14
2023-05-22T22:50:24.312Z,20.07
2023-05-22T22:52:51.068Z,20.04
2023-05-22T22:55:18.012Z,19.95
2023-05-22T22:57:47.006Z,19.95
2023-05-22T23:00:13.872Z,19.93
2023-05-22T23:02:40.343Z,19.89
2023-05-22T23:05:07.345Z,19.88
2023-05-22T23:07:34.388Z,19.91
2023-05-22T23:10:00.725Z,19.94
2023-05-22T23:12:27.099Z,20.01
2023-05-22T23:14:55.282Z,20.07
2023-05-22T23:17:21.613Z,20.07
2023-05-22T23:19:47.879Z,20.09
2023-05-22T23:22:14.380Z,20.03
2023-05-22T23:24:40.716Z,20.03
2023-05-22T23:27:07.040Z,20.05
2023-05-22T23:29:33.404Z,20.02
2023-05-22T23:31:59.740Z,20.04
2023-05-22T23:34:26.172Z,20.01
2023-05-22T23:36:52.504Z,19.96
2023-05-22T23:39:18.786Z,19.98
2023-05-22T23:41:45.469Z,19.94
2023-05-22T23:44:12.150Z,19.95
2023-05-22T23:46:39.611Z,19.94
2023-05-22T23:49:07.074Z,19.91
2023-05-22T23:51:33.596Z,19.87
2023-05-22T23:53:59.916Z,19.88
2023-05-22T23:56:26.436Z,19.85
2023-05-22T23:58:52.804Z,19.79
